createdAt,value
2022-11-24T00:04:36.161Z,10.00
2022-11-24T00:09:38.540Z,10.00
2022-11-24T00:14:40.856Z,9.90
2022-11-24T00:19:43.137Z,9.70
2022-11-24T00:24:45.365Z,9.60
2022-11-24T00:29:47.642Z,9.60
2022-11-24T00:34:50.004Z,9.50
2022-11-24T00:39:52.486Z,9.40
2022-11-24T00:44:54.715Z,9.40
2022-11-24T00:49:56.906Z,9.40
2022-11-24T00:54:59.155Z,9.40
2022-11-24T01:00:01.382Z,9.40
2022-11-24T01:05:03.793Z,9.40
2022-11-24T01:10:07.861Z,9.40
2022-11-24T01:15:10.218Z,9.30
2022-11-24T01:20:13.177Z,9.30
2022-11-24T01:25:15.638Z,9.30
2022-11-24T01:30:18.073Z,9.20
2022-11-24T01:35:20.380Z,9.20
2022-11-24T01:40:22.770Z,9.20
2022-11-24T01:45:40.944Z,9.20
2022-11-24T01:50:44.264Z,9.20
2022-11-24T01:55:46.759Z,9.20
2022-11-24T02:00:49.650Z,9.10
2022-11-24T02:06:02.593Z,9.10
2022-11-24T02:11:05.906Z,9.00
2022-11-24T02:16:11.735Z,9.00
2022-11-24T02:21:15.821Z,9.00
2022-11-24T02:26:36.525Z,9.00
2022-11-24T02:31:41.824Z,9.10
2022-11-24T02:36:44.804Z,9.20
2022-11-24T02:41:53.288Z,9.30
2022-11-24T02:47:10.355Z,9.30
2022-11-24T02:52:12.588Z,9.30
2022-11-24T02:57:15.540Z,9.30
2022-11-24T03:02:17.797Z,9.20
2022-11-24T03:07:20.198Z,9.20
2022-11-24T03:12:22.574Z,9.20
2022-11-24T03:17:24.818Z,9.20
2022-11-24T03:22:27.119Z,9.30
2022-11-24T03:27:31.315Z,9.30
2022-11-24T03:32:33.580Z,9.40
2022-11-24T03:37:36.057Z,9.40
2022-11-24T03:42:38.348Z,9.40
2022-11-24T03:47:40.579Z,9.40
2022-11-24T03:52:42.859Z,9.30
2022-11-24T03:57:45.066Z,9.30
2022-11-24T04:02:48.381Z,9.30
2022-11-24T04:07:50.866Z,9.30
2022-11-24T04:12:53.179Z,9.30
2022-11-24T04:17:56.420Z,9.30
2022-11-24T04:22:58.881Z,9.20
2022-11-24T04:28:01.295Z,9.10
2022-11-24T04:33:03.552Z,9.20
2022-11-24T04:38:05.860Z,9.30
2022-11-24T04:43:09.448Z,9.30
2022-11-24T04:48:11.687Z,9.40
2022-11-24T04:53:13.954Z,9.40
2022-11-24T04:58:16.183Z,9.20
2022-11-24T05:03:18.398Z,9.20
2022-11-24T05:08:20.639Z,9.30
2022-11-24T05:13:22.822Z,9.30
2022-11-24T05:18:25.019Z,9.40
2022-11-24T05:23:27.634Z,9.40
2022-11-24T05:28:29.959Z,9.40
2022-11-24T05:33:33.557Z,9.40
2022-11-24T05:38:36.035Z,9.40
2022-11-24T05:43:38.261Z,9.40
2022-11-24T05:48:40.488Z,9.30
2022-11-24T05:53:42.662Z,9.20
2022-11-24T05:58:44.888Z,9.30
2022-11-24T06:03:47.170Z,9.20
2022-11-24T06:08:49.377Z,9.20
2022-11-24T06:13:51.717Z,9.20
2022-11-24T06:18:54.190Z,9.20
2022-11-24T06:23:56.395Z,9.20
2022-11-24T06:28:58.580Z,9.30
2022-11-24T06:34:01.187Z,9.30
2022-11-24T06:39:05.521Z,9.30
2022-11-24T06:44:07.720Z,9.40
2022-11-24T06:49:09.897Z,9.40
2022-11-24T06:54:17.519Z,9.40
2022-11-24T06:59:20.920Z,9.50
2022-11-24T07:04:23.229Z,9.50
2022-11-24T07:09:25.389Z,9.60
2022-11-24T07:14:27.540Z,9.70
2022-11-24T07:19:29.761Z,9.70
2022-11-24T07:24:31.986Z,9.80
2022-11-24T07:29:34.760Z,9.80
2022-11-24T07:34:37.176Z,9.90
2022-11-24T07:39:39.549Z,10.00
2022-11-24T07:44:41.718Z,10.10
2022-11-24T07:49:43.801Z,10.20
2022-11-24T07:54:45.933Z,10.30
2022-11-24T07:59:48.076Z,10.30
2022-11-24T08:04:50.310Z,10.50
2022-11-24T08:09:52.628Z,10.50
2022-11-24T08:14:54.853Z,10.60
2022-11-24T08:19:57.114Z,10.70
2022-11-24T08:24:59.299Z,10.70
2022-11-24T08:30:01.496Z,10.80
2022-11-24T08:35:18.662Z,10.80
2022-11-24T08:40:21.790Z,10.90
2022-11-24T08:45:25.652Z,11.00
2022-11-24T08:50:28.211Z,11.10
2022-11-24T08:55:30.459Z,11.10
2022-11-24T09:00:32.666Z,11.30
2022-11-24T09:05:52.166Z,11.30
2022-11-24T09:11:03.077Z,11.40
2022-11-24T09:16:17.403Z,11.50
2022-11-24T09:21:21.792Z,11.70
2022-11-24T09:26:32.204Z,11.90
2022-11-24T09:31:36.482Z,12.10
2022-11-24T09:36:39.201Z,12.20
2022-11-24T09:41:44.754Z,12.30
2022-11-24T09:47:16.806Z,12.30
2022-11-24T09:52:49.205Z,12.30
2022-11-24T09:58:22.532Z,12.40
2022-11-24T10:03:42.042Z,12.50
2022-11-24T10:08:59.184Z,12.60
2022-11-24T10:14:19.807Z,12.70
2022-11-24T10:19:51.178Z,12.70
2022-11-24T10:25:07.805Z,12.70
2022-11-24T10:30:16.669Z,12.60
2022-11-24T10:35:49.382Z,12.70
2022-11-24T10:41:03.467Z,12.80
2022-11-24T10:46:16.554Z,12.90
2022-11-24T10:51:22.123Z,13.00
2022-11-24T10:56:24.553Z,13.10
2022-11-24T11:01:33.315Z,13.20
2022-11-24T11:06:38.063Z,13.10
2022-11-24T11:11:41.601Z,13.00
2022-11-24T11:16:53.698Z,12.90
2022-11-24T11:22:14.639Z,12.90
2022-11-24T11:27:16.892Z,13.20
2022-11-24T11:37:49.061Z,13.50
2022-11-24T11:43:10.560Z,13.40
2022-11-24T11:48:42.675Z,13.40
2022-11-24T11:54:07.909Z,13.10
2022-11-24T11:59:18.708Z,12.90
2022-11-24T12:04:43.842Z,12.60
2022-11-24T12:09:59.448Z,12.40
2022-11-24T12:15:22.908Z,12.30
2022-11-24T12:20:33.783Z,12.30
2022-11-24T12:25:49.609Z,12.50
2022-11-24T12:31:06.623Z,12.90
2022-11-24T12:36:33.891Z,13.10
2022-11-24T12:41:47.591Z,12.90
2022-11-24T12:47:11.192Z,13.10
2022-11-24T12:52:31.331Z,13.20
2022-11-24T12:58:11.028Z,13.50
2022-11-24T13:03:21.219Z,13.50
2022-11-24T13:08:23.935Z,13.70
2022-11-24T13:14:12.279Z,13.90
2022-11-24T13:19:18.284Z,14.10
2022-11-24T13:24:25.308Z,13.90
2022-11-24T13:29:36.975Z,13.60
2022-11-24T13:34:39.310Z,13.40
2022-11-24T13:40:13.705Z,13.30
2022-11-24T13:45:55.125Z,13.10
2022-11-24T13:50:57.474Z,12.90
2022-11-24T13:56:01.035Z,12.80
2022-11-24T14:01:06.183Z,12.60
2022-11-24T14:06:21.633Z,12.70
2022-11-24T14:11:26.003Z,12.70
2022-11-24T14:16:28.383Z,12.90
2022-11-24T14:21:35.802Z,13.00
2022-11-24T14:26:40.364Z,13.30
2022-11-24T14:31:51.758Z,13.30
2022-11-24T14:36:56.426Z,13.40
2022-11-24T14:42:08.022Z,13.70
2022-11-24T14:47:17.218Z,13.80
2022-11-24T14:52:22.112Z,13.60
2022-11-24T14:57:36.062Z,13.40
2022-11-24T15:02:52.149Z,13.20
2022-11-24T15:08:03.051Z,12.90
2022-11-24T15:13:22.695Z,12.80
2022-11-24T15:18:37.997Z,12.80
2022-11-24T15:23:42.089Z,12.50
2022-11-24T15:28:46.734Z,12.40
2022-11-24T15:33:48.902Z,12.40
2022-11-24T15:38:52.200Z,12.40
2022-11-24T15:43:59.183Z,12.30
2022-11-24T15:49:01.409Z,12.20
2022-11-24T15:54:03.926Z,12.10
2022-11-24T15:59:06.347Z,11.90
2022-11-24T16:04:08.634Z,11.70
2022-11-24T16:09:17.214Z,11.50
2022-11-24T16:14:19.587Z,11.40
2022-11-24T16:19:21.978Z,11.30
2022-11-24T16:24:24.147Z,11.10
2022-11-24T16:29:26.276Z,11.10
2022-11-24T16:34:28.511Z,11.00
2022-11-24T16:39:30.706Z,10.90
2022-11-24T16:44:34.687Z,10.90
2022-11-24T16:49:37.152Z,10.80
2022-11-24T16:54:39.348Z,10.80
2022-11-24T16:59:43.570Z,10.80
2022-11-24T17:04:45.873Z,10.70
2022-11-24T17:09:49.249Z,10.60
2022-11-24T17:15:16.360Z,10.50
2022-11-24T17:20:13.793Z,10.50
2022-11-24T17:25:16.010Z,10.40
2022-11-24T17:30:18.274Z,10.30
2022-11-24T17:35:20.499Z,10.30
2022-11-24T17:40:29.934Z,10.30
2022-11-24T17:45:32.200Z,10.20
2022-11-24T17:50:34.557Z,10.30
2022-11-24T17:55:36.689Z,10.20
2022-11-24T18:00:38.949Z,10.20
2022-11-24T18:05:41.225Z,10.20
2022-11-24T18:10:43.436Z,10.10
2022-11-24T18:15:45.761Z,10.10
2022-11-24T18:20:57.509Z,10.00
2022-11-24T18:26:01.881Z,10.10
2022-11-24T18:31:06.090Z,10.00
2022-11-24T18:36:10.038Z,10.00
2022-11-24T18:41:14.010Z,10.00
2022-11-24T18:46:18.249Z,10.00
2022-11-24T18:51:22.764Z,10.00
2022-11-24T18:56:25.575Z,10.00
2022-11-24T19:01:29.566Z,10.00
2022-11-24T19:06:37.073Z,10.00
2022-11-24T19:11:41.411Z,10.10
2022-11-24T19:16:44.780Z,10.00
2022-11-24T19:21:47.036Z,10.00
2022-11-24T19:26:50.045Z,10.00
2022-11-24T19:31:54.477Z,10.00
2022-11-24T19:36:56.720Z,10.00
2022-11-24T19:41:58.930Z,10.00
2022-11-24T19:47:01.103Z,10.00
2022-11-24T19:52:03.377Z,10.00
2022-11-24T19:57:05.583Z,10.00
2022-11-24T20:02:07.896Z,10.00
2022-11-24T20:07:11.140Z,10.00
2022-11-24T20:12:13.464Z,10.00
2022-11-24T20:17:15.675Z,10.00
2022-11-24T20:22:17.870Z,10.00
2022-11-24T20:27:20.050Z,10.00
2022-11-24T20:32:22.383Z,10.10
2022-11-24T20:42:44.523Z,10.00
2022-11-24T20:47:46.697Z,10.00
2022-11-24T20:52:48.930Z,10.00
2022-11-24T20:57:51.116Z,9.90
2022-11-24T21:02:53.398Z,9.90
2022-11-24T21:07:55.718Z,9.80
2022-11-24T21:12:57.985Z,9.70
2022-11-24T21:18:00.231Z,9.70
2022-11-24T21:23:03.229Z,9.60
2022-11-24T21:28:05.736Z,9.50
2022-11-24T21:33:08.036Z,9.50
2022-11-24T21:38:10.329Z,9.50
2022-11-24T21:43:12.546Z,9.50
2022-11-24T21:48:14.691Z,9.60
2022-11-24T21:53:16.856Z,9.60
2022-11-24T21:58:19.324Z,9.50
2022-11-24T22:03:22.081Z,9.40
2022-11-24T22:08:25.339Z,9.30
2022-11-24T22:13:27.541Z,9.30
2022-11-24T22:18:34.723Z,9.20
2022-11-24T22:23:37.181Z,9.20
2022-11-24T22:28:39.764Z,9.10
2022-11-24T22:33:42.087Z,9.10
2022-11-24T22:38:44.467Z,9.10
2022-11-24T22:43:47.481Z,9.00
2022-11-24T22:48:53.012Z,8.90
2022-11-24T22:53:58.622Z,8.80
2022-11-24T22:59:02.108Z,8.80
2022-11-24T23:04:04.854Z,8.70
2022-11-24T23:09:07.730Z,8.70
2022-11-24T23:14:15.383Z,8.70
2022-11-24T23:19:17.974Z,8.60
2022-11-24T23:24:20.304Z,8.60
2022-11-24T23:29:22.657Z,8.60
2022-11-24T23:34:24.920Z,8.60
2022-11-24T23:39:27.103Z,8.60
2022-11-24T23:44:29.295Z,8.60
2022-11-24T23:49:31.528Z,8.70
2022-11-24T23:54:34.998Z,8.70
2022-11-24T23:59:37.477Z,8.70
